sensor_id;sensor_type;location;lat;lon;timestamp;P1;durP1;ratioP1;P2;durP2;ratioP2
66145;SDS011;52948;60.040;30.320;2023-07-30T00:01:29;3.08;;;1.10;;
66145;SDS011;52948;60.040;30.320;2023-07-30T00:06:31;1.48;;;0.93;;
66145;SDS011;52948;60.040;30.320;2023-07-30T00:11:33;3.72;;;1.00;;
66145;SDS011;52948;60.040;30.320;2023-07-30T00:16:35;3.58;;;1.00;;
66145;SDS011;52948;60.040;30.320;2023-07-30T00:21:37;2.05;;;1.08;;
66145;SDS011;52948;60.040;30.320;2023-07-30T00:26:40;1.00;;;0.90;;
66145;SDS011;52948;60.040;30.320;2023-07-30T00:31:42;2.05;;;1.00;;
66145;SDS011;52948;60.040;30.320;2023-07-30T00:36:44;1.08;;;0.90;;
66145;SDS011;52948;60.040;30.320;2023-07-30T00:41:46;0.88;;;0.85;;
66145;SDS011;52948;60.040;30.320;2023-07-30T00:46:48;3.13;;;0.98;;
66145;SDS011;52948;60.040;30.320;2023-07-30T00:51:51;2.78;;;1.08;;
66145;SDS011;52948;60.040;30.320;2023-07-30T00:56:53;2.47;;;1.20;;
66145;SDS011;52948;60.040;30.320;2023-07-30T01:01:56;0.93;;;0.80;;
66145;SDS011;52948;60.040;30.320;2023-07-30T01:06:59;3.28;;;1.10;;
66145;SDS011;52948;60.040;30.320;2023-07-30T01:12:02;2.03;;;0.80;;
66145;SDS011;52948;60.040;30.320;2023-07-30T01:17:05;0.95;;;0.85;;
66145;SDS011;52948;60.040;30.320;2023-07-30T01:22:07;2.72;;;1.08;;
66145;SDS011;52948;60.040;30.320;2023-07-30T01:27:12;0.75;;;0.75;;
66145;SDS011;52948;60.040;30.320;2023-07-30T01:32:19;1.33;;;0.98;;
66145;SDS011;52948;60.040;30.320;2023-07-30T01:37:22;2.08;;;0.77;;
66145;SDS011;52948;60.040;30.320;2023-07-30T01:42:31;0.93;;;0.85;;
66145;SDS011;52948;60.040;30.320;2023-07-30T01:47:33;3.47;;;1.00;;
66145;SDS011;52948;60.040;30.320;2023-07-30T01:52:35;2.47;;;0.90;;
66145;SDS011;52948;60.040;30.320;2023-07-30T01:57:38;1.15;;;0.80;;
66145;SDS011;52948;60.040;30.320;2023-07-30T02:02:40;1.27;;;0.93;;
66145;SDS011;52948;60.040;30.320;2023-07-30T02:07:42;1.67;;;0.93;;
66145;SDS011;52948;60.040;30.320;2023-07-30T02:12:44;1.67;;;0.90;;
66145;SDS011;52948;60.040;30.320;2023-07-30T02:17:47;1.10;;;1.00;;
66145;SDS011;52948;60.040;30.320;2023-07-30T02:22:49;1.02;;;0.85;;
66145;SDS011;52948;60.040;30.320;2023-07-30T02:27:52;0.98;;;0.70;;
66145;SDS011;52948;60.040;30.320;2023-07-30T02:32:54;2.00;;;1.00;;
66145;SDS011;52948;60.040;30.320;2023-07-30T02:37:56;2.30;;;1.25;;
66145;SDS011;52948;60.040;30.320;2023-07-30T02:42:58;1.38;;;1.10;;
66145;SDS011;52948;60.040;30.320;2023-07-30T02:48:01;1.48;;;0.90;;
66145;SDS011;52948;60.040;30.320;2023-07-30T02:53:04;1.60;;;0.98;;
66145;SDS011;52948;60.040;30.320;2023-07-30T02:58:06;2.15;;;0.75;;
66145;SDS011;52948;60.040;30.320;2023-07-30T03:03:08;1.30;;;0.90;;
66145;SDS011;52948;60.040;30.320;2023-07-30T03:08:10;1.75;;;0.90;;
66145;SDS011;52948;60.040;30.320;2023-07-30T03:13:13;1.40;;;0.82;;
66145;SDS011;52948;60.040;30.320;2023-07-30T03:18:15;1.98;;;0.90;;
66145;SDS011;52948;60.040;30.320;2023-07-30T03:23:17;3.22;;;1.13;;
66145;SDS011;52948;60.040;30.320;2023-07-30T03:28:19;0.77;;;0.73;;
66145;SDS011;52948;60.040;30.320;2023-07-30T03:33:22;1.25;;;1.00;;
66145;SDS011;52948;60.040;30.320;2023-07-30T03:38:26;1.45;;;0.98;;
66145;SDS011;52948;60.040;30.320;2023-07-30T03:43:28;1.48;;;1.17;;
66145;SDS011;52948;60.040;30.320;2023-07-30T03:48:30;1.08;;;0.98;;
66145;SDS011;52948;60.040;30.320;2023-07-30T03:53:32;2.03;;;1.08;;
66145;SDS011;52948;60.040;30.320;2023-07-30T03:58:34;0.70;;;0.70;;
66145;SDS011;52948;60.040;30.320;2023-07-30T04:03:37;1.65;;;0.90;;
66145;SDS011;52948;60.040;30.320;2023-07-30T04:08:39;3.08;;;0.98;;
66145;SDS011;52948;60.040;30.320;2023-07-30T04:13:42;0.95;;;0.85;;
66145;SDS011;52948;60.040;30.320;2023-07-30T04:18:44;2.05;;;1.05;;
66145;SDS011;52948;60.040;30.320;2023-07-30T04:23:46;1.42;;;1.10;;
66145;SDS011;52948;60.040;30.320;2023-07-30T04:28:49;2.17;;;1.00;;
66145;SDS011;52948;60.040;30.320;2023-07-30T04:33:52;1.80;;;1.13;;
66145;SDS011;52948;60.040;30.320;2023-07-30T04:38:54;1.48;;;1.20;;
66145;SDS011;52948;60.040;30.320;2023-07-30T04:44:01;1.33;;;0.98;;
66145;SDS011;52948;60.040;30.320;2023-07-30T04:49:04;1.45;;;1.08;;
66145;SDS011;52948;60.040;30.320;2023-07-30T04:54:07;2.58;;;1.15;;
66145;SDS011;52948;60.040;30.320;2023-07-30T04:59:09;1.48;;;1.30;;
66145;SDS011;52948;60.040;30.320;2023-07-30T05:04:11;1.60;;;1.10;;
66145;SDS011;52948;60.040;30.320;2023-07-30T05:09:13;2.50;;;1.35;;
66145;SDS011;52948;60.040;30.320;2023-07-30T05:14:15;2.08;;;1.08;;
66145;SDS011;52948;60.040;30.320;2023-07-30T05:19:17;1.83;;;1.20;;
66145;SDS011;52948;60.040;30.320;2023-07-30T05:24:20;1.13;;;1.00;;
66145;SDS011;52948;60.040;30.320;2023-07-30T05:29:22;5.13;;;1.88;;
66145;SDS011;52948;60.040;30.320;2023-07-30T05:34:24;2.90;;;1.15;;
66145;SDS011;52948;60.040;30.320;2023-07-30T05:39:26;1.67;;;1.02;;
66145;SDS011;52948;60.040;30.320;2023-07-30T05:44:28;1.40;;;1.10;;
66145;SDS011;52948;60.040;30.320;2023-07-30T05:49:31;1.70;;;1.45;;
66145;SDS011;52948;60.040;30.320;2023-07-30T05:54:33;1.48;;;1.35;;
66145;SDS011;52948;60.040;30.320;2023-07-30T05:59:35;2.10;;;1.42;;
66145;SDS011;52948;60.040;30.320;2023-07-30T06:04:37;1.77;;;1.05;;
66145;SDS011;52948;60.040;30.320;2023-07-30T06:09:39;5.45;;;1.30;;
66145;SDS011;52948;60.040;30.320;2023-07-30T06:14:42;1.40;;;1.30;;
66145;SDS011;52948;60.040;30.320;2023-07-30T06:19:44;1.67;;;1.17;;
66145;SDS011;52948;60.040;30.320;2023-07-30T06:24:46;3.03;;;1.48;;
66145;SDS011;52948;60.040;30.320;2023-07-30T06:29:48;1.30;;;1.13;;
66145;SDS011;52948;60.040;30.320;2023-07-30T06:34:50;1.80;;;1.40;;
66145;SDS011;52948;60.040;30.320;2023-07-30T06:39:52;1.70;;;1.30;;
66145;SDS011;52948;60.040;30.320;2023-07-30T06:44:54;3.05;;;1.30;;
66145;SDS011;52948;60.040;30.320;2023-07-30T06:49:56;1.30;;;1.20;;
66145;SDS011;52948;60.040;30.320;2023-07-30T06:54:59;2.60;;;1.27;;
66145;SDS011;52948;60.040;30.320;2023-07-30T07:00:01;1.30;;;1.20;;
66145;SDS011;52948;60.040;30.320;2023-07-30T07:05:03;3.08;;;1.10;;
66145;SDS011;52948;60.040;30.320;2023-07-30T07:10:06;1.67;;;1.25;;
66145;SDS011;52948;60.040;30.320;2023-07-30T07:15:09;1.45;;;1.20;;
66145;SDS011;52948;60.040;30.320;2023-07-30T07:20:11;1.52;;;1.25;;
66145;SDS011;52948;60.040;30.320;2023-07-30T07:25:13;2.05;;;1.20;;
66145;SDS011;52948;60.040;30.320;2023-07-30T07:30:15;2.45;;;1.50;;
66145;SDS011;52948;60.040;30.320;2023-07-30T07:35:21;2.70;;;1.50;;
66145;SDS011;52948;60.040;30.320;2023-07-30T07:40:23;1.88;;;1.40;;
66145;SDS011;52948;60.040;30.320;2023-07-30T07:45:25;2.47;;;1.30;;
66145;SDS011;52948;60.040;30.320;2023-07-30T07:50:28;2.67;;;1.33;;
66145;SDS011;52948;60.040;30.320;2023-07-30T07:55:30;1.75;;;1.27;;
66145;SDS011;52948;60.040;30.320;2023-07-30T08:00:32;1.70;;;1.45;;
66145;SDS011;52948;60.040;30.320;2023-07-30T08:05:34;1.63;;;1.30;;
66145;SDS011;52948;60.040;30.320;2023-07-30T08:10:40;1.83;;;1.33;;
66145;SDS011;52948;60.040;30.320;2023-07-30T08:15:45;2.72;;;1.33;;
66145;SDS011;52948;60.040;30.320;2023-07-30T08:20:47;2.08;;;1.42;;
66145;SDS011;52948;60.040;30.320;2023-07-30T08:25:51;3.17;;;1.58;;
66145;SDS011;52948;60.040;30.320;2023-07-30T08:30:59;2.35;;;1.40;;
66145;SDS011;52948;60.040;30.320;2023-07-30T08:36:02;1.38;;;1.27;;
66145;SDS011;52948;60.040;30.320;2023-07-30T08:41:04;2.22;;;1.58;;
66145;SDS011;52948;60.040;30.320;2023-07-30T08:46:06;1.98;;;1.45;;
66145;SDS011;52948;60.040;30.320;2023-07-30T08:51:08;1.50;;;1.33;;
66145;SDS011;52948;60.040;30.320;2023-07-30T08:56:10;2.45;;;1.48;;
66145;SDS011;52948;60.040;30.320;2023-07-30T09:01:13;2.22;;;1.35;;
66145;SDS011;52948;60.040;30.320;2023-07-30T09:06:16;2.67;;;1.60;;
66145;SDS011;52948;60.040;30.320;2023-07-30T09:11:18;1.75;;;1.40;;
66145;SDS011;52948;60.040;30.320;2023-07-30T09:16:24;2.22;;;1.52;;
66145;SDS011;52948;60.040;30.320;2023-07-30T09:21:30;2.03;;;1.60;;
66145;SDS011;52948;60.040;30.320;2023-07-30T09:26:39;3.50;;;1.65;;
66145;SDS011;52948;60.040;30.320;2023-07-30T09:31:47;2.25;;;1.80;;
66145;SDS011;52948;60.040;30.320;2023-07-30T09:36:56;1.55;;;1.30;;
66145;SDS011;52948;60.040;30.320;2023-07-30T09:41:59;1.98;;;1.23;;
66145;SDS011;52948;60.040;30.320;2023-07-30T09:47:02;2.05;;;1.38;;
66145;SDS011;52948;60.040;30.320;2023-07-30T09:52:07;2.80;;;1.27;;
66145;SDS011;52948;60.040;30.320;2023-07-30T09:57:09;3.05;;;1.55;;
66145;SDS011;52948;60.040;30.320;2023-07-30T10:02:13;3.42;;;1.75;;
66145;SDS011;52948;60.040;30.320;2023-07-30T10:07:17;3.00;;;1.30;;
66145;SDS011;52948;60.040;30.320;2023-07-30T10:12:21;2.60;;;1.13;;
66145;SDS011;52948;60.040;30.320;2023-07-30T10:17:27;1.30;;;1.08;;
66145;SDS011;52948;60.040;30.320;2023-07-30T10:22:31;2.13;;;1.50;;
66145;SDS011;52948;60.040;30.320;2023-07-30T10:27:40;1.48;;;1.25;;
66145;SDS011;52948;60.040;30.320;2023-07-30T10:37:58;1.63;;;1.52;;
66145;SDS011;52948;60.040;30.320;2023-07-30T10:43:02;1.70;;;1.60;;
66145;SDS011;52948;60.040;30.320;2023-07-30T10:48:04;2.45;;;1.58;;
66145;SDS011;52948;60.040;30.320;2023-07-30T10:53:07;2.22;;;1.40;;
66145;SDS011;52948;60.040;30.320;2023-07-30T10:58:11;1.42;;;1.33;;
66145;SDS011;52948;60.040;30.320;2023-07-30T11:03:15;1.35;;;1.17;;
66145;SDS011;52948;60.040;30.320;2023-07-30T11:08:17;4.05;;;2.20;;
66145;SDS011;52948;60.040;30.320;2023-07-30T11:13:19;2.55;;;1.67;;
66145;SDS011;52948;60.040;30.320;2023-07-30T11:18:21;2.35;;;1.60;;
66145;SDS011;52948;60.040;30.320;2023-07-30T11:23:24;1.95;;;1.60;;
66145;SDS011;52948;60.040;30.320;2023-07-30T11:28:33;2.28;;;1.67;;
66145;SDS011;52948;60.040;30.320;2023-07-30T11:33:42;2.13;;;1.70;;
66145;SDS011;52948;60.040;30.320;2023-07-30T11:38:46;2.65;;;1.95;;
66145;SDS011;52948;60.040;30.320;2023-07-30T11:43:48;3.15;;;2.00;;
66145;SDS011;52948;60.040;30.320;2023-07-30T11:48:51;4.72;;;2.20;;
66145;SDS011;52948;60.040;30.320;2023-07-30T11:53:55;3.85;;;2.30;;
66145;SDS011;52948;60.040;30.320;2023-07-30T11:59:06;3.45;;;1.95;;
66145;SDS011;52948;60.040;30.320;2023-07-30T12:04:08;3.37;;;1.70;;
66145;SDS011;52948;60.040;30.320;2023-07-30T12:09:13;4.15;;;2.38;;
66145;SDS011;52948;60.040;30.320;2023-07-30T12:14:17;2.47;;;1.80;;
66145;SDS011;52948;60.040;30.320;2023-07-30T12:19:21;2.05;;;1.67;;
66145;SDS011;52948;60.040;30.320;2023-07-30T12:24:23;2.78;;;1.77;;
66145;SDS011;52948;60.040;30.320;2023-07-30T12:29:25;2.35;;;1.48;;
66145;SDS011;52948;60.040;30.320;2023-07-30T12:34:28;5.22;;;1.70;;
66145;SDS011;52948;60.040;30.320;2023-07-30T12:39:30;2.33;;;1.95;;
66145;SDS011;52948;60.040;30.320;2023-07-30T12:44:32;2.17;;;1.70;;
66145;SDS011;52948;60.040;30.320;2023-07-30T12:49:34;3.17;;;2.30;;
66145;SDS011;52948;60.040;30.320;2023-07-30T12:54:36;4.53;;;1.90;;
66145;SDS011;52948;60.040;30.320;2023-07-30T12:59:38;2.20;;;1.73;;
66145;SDS011;52948;60.040;30.320;2023-07-30T13:04:41;2.97;;;1.58;;
66145;SDS011;52948;60.040;30.320;2023-07-30T13:09:45;2.83;;;2.00;;
66145;SDS011;52948;60.040;30.320;2023-07-30T13:14:48;3.33;;;2.00;;
66145;SDS011;52948;60.040;30.320;2023-07-30T13:19:50;1.80;;;1.50;;
66145;SDS011;52948;60.040;30.320;2023-07-30T13:24:53;2.22;;;1.50;;
66145;SDS011;52948;60.040;30.320;2023-07-30T13:29:55;1.90;;;1.50;;
66145;SDS011;52948;60.040;30.320;2023-07-30T13:34:57;2.90;;;1.70;;
66145;SDS011;52948;60.040;30.320;2023-07-30T13:40:00;3.17;;;1.70;;
66145;SDS011;52948;60.040;30.320;2023-07-30T13:45:03;3.78;;;2.08;;
66145;SDS011;52948;60.040;30.320;2023-07-30T13:50:07;4.15;;;2.25;;
66145;SDS011;52948;60.040;30.320;2023-07-30T13:55:10;2.28;;;1.80;;
66145;SDS011;52948;60.040;30.320;2023-07-30T14:00:17;2.38;;;1.80;;
66145;SDS011;52948;60.040;30.320;2023-07-30T14:05:19;2.33;;;1.70;;
66145;SDS011;52948;60.040;30.320;2023-07-30T14:10:26;2.22;;;1.80;;
66145;SDS011;52948;60.040;30.320;2023-07-30T14:15:29;4.72;;;2.17;;
66145;SDS011;52948;60.040;30.320;2023-07-30T14:20:31;2.50;;;1.73;;
66145;SDS011;52948;60.040;30.320;2023-07-30T14:25:38;3.55;;;1.80;;
66145;SDS011;52948;60.040;30.320;2023-07-30T14:30:41;3.38;;;1.73;;
66145;SDS011;52948;60.040;30.320;2023-07-30T14:35:46;4.43;;;1.80;;
66145;SDS011;52948;60.040;30.320;2023-07-30T14:40:49;3.53;;;1.58;;
66145;SDS011;52948;60.040;30.320;2023-07-30T14:45:51;2.42;;;1.73;;
66145;SDS011;52948;60.040;30.320;2023-07-30T14:50:58;3.33;;;1.58;;
66145;SDS011;52948;60.040;30.320;2023-07-30T14:56:01;2.35;;;1.60;;
66145;SDS011;52948;60.040;30.320;2023-07-30T15:01:05;4.95;;;1.85;;
66145;SDS011;52948;60.040;30.320;2023-07-30T15:06:07;2.47;;;1.70;;
66145;SDS011;52948;60.040;30.320;2023-07-30T15:11:09;2.53;;;1.55;;
66145;SDS011;52948;60.040;30.320;2023-07-30T15:16:13;2.08;;;1.58;;
66145;SDS011;52948;60.040;30.320;2023-07-30T15:21:15;1.63;;;1.45;;
66145;SDS011;52948;60.040;30.320;2023-07-30T15:26:23;1.95;;;1.60;;
66145;SDS011;52948;60.040;30.320;2023-07-30T15:31:25;2.45;;;1.75;;
66145;SDS011;52948;60.040;30.320;2023-07-30T15:36:27;1.50;;;1.40;;
66145;SDS011;52948;60.040;30.320;2023-07-30T15:41:29;1.73;;;1.38;;
66145;SDS011;52948;60.040;30.320;2023-07-30T15:46:32;2.67;;;1.63;;
66145;SDS011;52948;60.040;30.320;2023-07-30T15:51:34;3.38;;;1.80;;
66145;SDS011;52948;60.040;30.320;2023-07-30T15:56:36;3.08;;;1.52;;
66145;SDS011;52948;60.040;30.320;2023-07-30T16:01:40;1.75;;;1.60;;
66145;SDS011;52948;60.040;30.320;2023-07-30T16:06:42;3.38;;;1.80;;
66145;SDS011;52948;60.040;30.320;2023-07-30T16:11:44;2.85;;;1.67;;
66145;SDS011;52948;60.040;30.320;2023-07-30T16:16:46;3.05;;;2.40;;
66145;SDS011;52948;60.040;30.320;2023-07-30T16:21:49;2.88;;;1.95;;
66145;SDS011;52948;60.040;30.320;2023-07-30T16:26:53;4.32;;;1.83;;
66145;SDS011;52948;60.040;30.320;2023-07-30T16:32:00;3.03;;;1.45;;
66145;SDS011;52948;60.040;30.320;2023-07-30T16:37:03;1.98;;;1.38;;
66145;SDS011;52948;60.040;30.320;2023-07-30T16:42:05;1.70;;;1.60;;
66145;SDS011;52948;60.040;30.320;2023-07-30T16:47:09;2.20;;;1.67;;
66145;SDS011;52948;60.040;30.320;2023-07-30T16:52:11;4.60;;;2.00;;
66145;SDS011;52948;60.040;30.320;2023-07-30T16:57:14;5.03;;;2.30;;
66145;SDS011;52948;60.040;30.320;2023-07-30T17:02:16;3.25;;;2.08;;
66145;SDS011;52948;60.040;30.320;2023-07-30T17:07:23;2.80;;;2.20;;
66145;SDS011;52948;60.040;30.320;2023-07-30T17:12:30;4.97;;;2.70;;
66145;SDS011;52948;60.040;30.320;2023-07-30T17:17:33;3.10;;;2.13;;
66145;SDS011;52948;60.040;30.320;2023-07-30T17:22:35;2.88;;;2.25;;
66145;SDS011;52948;60.040;30.320;2023-07-30T17:27:37;4.40;;;3.03;;
66145;SDS011;52948;60.040;30.320;2023-07-30T17:32:39;6.97;;;4.18;;
66145;SDS011;52948;60.040;30.320;2023-07-30T17:37:42;5.15;;;3.30;;
66145;SDS011;52948;60.040;30.320;2023-07-30T17:42:44;6.32;;;4.13;;
66145;SDS011;52948;60.040;30.320;2023-07-30T17:47:46;4.95;;;3.60;;
66145;SDS011;52948;60.040;30.320;2023-07-30T17:52:50;4.85;;;2.90;;
66145;SDS011;52948;60.040;30.320;2023-07-30T17:57:52;5.45;;;3.15;;
66145;SDS011;52948;60.040;30.320;2023-07-30T18:02:54;6.50;;;3.03;;
66145;SDS011;52948;60.040;30.320;2023-07-30T18:07:57;5.20;;;3.25;;
66145;SDS011;52948;60.040;30.320;2023-07-30T18:12:59;5.50;;;3.10;;
66145;SDS011;52948;60.040;30.320;2023-07-30T18:18:01;5.72;;;3.38;;
66145;SDS011;52948;60.040;30.320;2023-07-30T18:23:05;7.15;;;2.60;;
66145;SDS011;52948;60.040;30.320;2023-07-30T18:28:13;5.35;;;2.45;;
66145;SDS011;52948;60.040;30.320;2023-07-30T18:33:20;3.55;;;2.05;;
66145;SDS011;52948;60.040;30.320;2023-07-30T18:43:25;3.47;;;2.20;;
66145;SDS011;52948;60.040;30.320;2023-07-30T18:48:28;6.10;;;2.85;;
66145;SDS011;52948;60.040;30.320;2023-07-30T18:53:30;3.83;;;2.42;;
66145;SDS011;52948;60.040;30.320;2023-07-30T18:58:33;4.18;;;2.30;;
66145;SDS011;52948;60.040;30.320;2023-07-30T19:03:35;5.18;;;2.53;;
66145;SDS011;52948;60.040;30.320;2023-07-30T19:08:37;4.57;;;2.28;;
66145;SDS011;52948;60.040;30.320;2023-07-30T19:13:40;4.75;;;2.70;;
66145;SDS011;52948;60.040;30.320;2023-07-30T19:18:42;5.43;;;2.50;;
66145;SDS011;52948;60.040;30.320;2023-07-30T19:23:44;4.85;;;3.20;;
66145;SDS011;52948;60.040;30.320;2023-07-30T19:28:47;5.30;;;3.08;;
66145;SDS011;52948;60.040;30.320;2023-07-30T19:33:49;4.32;;;3.10;;
66145;SDS011;52948;60.040;30.320;2023-07-30T19:38:51;4.63;;;3.35;;
66145;SDS011;52948;60.040;30.320;2023-07-30T19:43:53;6.95;;;2.92;;
66145;SDS011;52948;60.040;30.320;2023-07-30T19:48:55;5.20;;;2.90;;
66145;SDS011;52948;60.040;30.320;2023-07-30T19:53:58;5.82;;;3.50;;
66145;SDS011;52948;60.040;30.320;2023-07-30T19:59:00;7.93;;;3.53;;
66145;SDS011;52948;60.040;30.320;2023-07-30T20:04:02;5.72;;;3.15;;
66145;SDS011;52948;60.040;30.320;2023-07-30T20:09:04;7.47;;;4.47;;
66145;SDS011;52948;60.040;30.320;2023-07-30T20:14:06;11.43;;;6.88;;
66145;SDS011;52948;60.040;30.320;2023-07-30T20:19:08;16.30;;;9.40;;
66145;SDS011;52948;60.040;30.320;2023-07-30T20:24:11;14.85;;;7.78;;
66145;SDS011;52948;60.040;30.320;2023-07-30T20:29:13;9.00;;;5.50;;
66145;SDS011;52948;60.040;30.320;2023-07-30T20:34:15;8.13;;;3.92;;
66145;SDS011;52948;60.040;30.320;2023-07-30T20:39:17;8.90;;;5.05;;
66145;SDS011;52948;60.040;30.320;2023-07-30T20:44:20;8.52;;;4.40;;
66145;SDS011;52948;60.040;30.320;2023-07-30T20:49:22;11.70;;;5.00;;
66145;SDS011;52948;60.040;30.320;2023-07-30T20:54:24;11.95;;;5.38;;
66145;SDS011;52948;60.040;30.320;2023-07-30T20:59:27;9.63;;;5.05;;
66145;SDS011;52948;60.040;30.320;2023-07-30T21:04:30;8.77;;;4.97;;
66145;SDS011;52948;60.040;30.320;2023-07-30T21:09:32;9.40;;;5.03;;
66145;SDS011;52948;60.040;30.320;2023-07-30T21:14:35;10.18;;;5.15;;
66145;SDS011;52948;60.040;30.320;2023-07-30T21:19:37;12.25;;;5.40;;
66145;SDS011;52948;60.040;30.320;2023-07-30T21:24:39;13.63;;;6.40;;
66145;SDS011;52948;60.040;30.320;2023-07-30T21:29:41;9.38;;;5.32;;
66145;SDS011;52948;60.040;30.320;2023-07-30T21:34:43;13.70;;;5.78;;
66145;SDS011;52948;60.040;30.320;2023-07-30T21:39:45;6.90;;;5.05;;
66145;SDS011;52948;60.040;30.320;2023-07-30T21:44:47;13.85;;;5.60;;
66145;SDS011;52948;60.040;30.320;2023-07-30T21:49:49;10.75;;;5.10;;
66145;SDS011;52948;60.040;30.320;2023-07-30T21:54:52;8.70;;;5.20;;
66145;SDS011;52948;60.040;30.320;2023-07-30T21:59:54;12.07;;;5.22;;
66145;SDS011;52948;60.040;30.320;2023-07-30T22:04:56;11.43;;;4.93;;
66145;SDS011;52948;60.040;30.320;2023-07-30T22:09:58;11.10;;;5.28;;
66145;SDS011;52948;60.040;30.320;2023-07-30T22:15:00;10.82;;;4.85;;
66145;SDS011;52948;60.040;30.320;2023-07-30T22:20:03;10.13;;;5.07;;
66145;SDS011;52948;60.040;30.320;2023-07-30T22:25:05;10.27;;;5.30;;
66145;SDS011;52948;60.040;30.320;2023-07-30T22:30:07;11.73;;;5.00;;
66145;SDS011;52948;60.040;30.320;2023-07-30T22:35:10;11.95;;;5.90;;
66145;SDS011;52948;60.040;30.320;2023-07-30T22:40:12;9.52;;;4.45;;
66145;SDS011;52948;60.040;30.320;2023-07-30T22:45:14;9.25;;;5.10;;
66145;SDS011;52948;60.040;30.320;2023-07-30T22:50:17;10.35;;;5.13;;
66145;SDS011;52948;60.040;30.320;2023-07-30T22:55:19;10.32;;;5.20;;
66145;SDS011;52948;60.040;30.320;2023-07-30T23:00:21;12.77;;;5.78;;
66145;SDS011;52948;60.040;30.320;2023-07-30T23:05:23;13.75;;;5.68;;
66145;SDS011;52948;60.040;30.320;2023-07-30T23:10:25;9.38;;;5.45;;
66145;SDS011;52948;60.040;30.320;2023-07-30T23:15:27;9.70;;;5.32;;
66145;SDS011;52948;60.040;30.320;2023-07-30T23:20:29;9.32;;;4.82;;
66145;SDS011;52948;60.040;30.320;2023-07-30T23:25:33;12.27;;;4.97;;
66145;SDS011;52948;60.040;30.320;2023-07-30T23:30:37;9.80;;;5.50;;
66145;SDS011;52948;60.040;30.320;2023-07-30T23:35:40;9.40;;;5.55;;
66145;SDS011;52948;60.040;30.320;2023-07-30T23:40:42;13.38;;;5.60;;
66145;SDS011;52948;60.040;30.320;2023-07-30T23:45:44;13.73;;;5.38;;
66145;SDS011;52948;60.040;30.320;2023-07-30T23:50:47;10.45;;;4.68;;
66145;SDS011;52948;60.040;30.320;2023-07-30T23:55:49;9.07;;;5.15;;
